sensor_id;sensor_type;location;lat;lon;timestamp;pressure;altitude;pressure_sealevel;temperature;humidity
62789;BME280;66401;42.016;21.454;2024-01-16T00:00:23;97051.81;;;0.85;78.63
62789;BME280;66401;42.016;21.454;2024-01-16T00:02:48;97062.06;;;0.77;79.78
62789;BME280;66401;42.016;21.454;2024-01-16T00:05:15;97059.81;;;0.66;81.26
62789;BME280;66401;42.016;21.454;2024-01-16T00:07:40;97056.97;;;0.69;80.85
62789;BME280;66401;42.016;21.454;2024-01-16T00:10:07;97058.38;;;0.63;81.38
62789;BME280;66401;42.016;21.454;2024-01-16T00:12:33;97059.97;;;0.64;81.69
62789;BME280;66401;42.016;21.454;2024-01-16T00:14:59;97072.97;;;0.63;82.12
62789;BME280;66401;42.016;21.454;2024-01-16T00:17:24;97060.13;;;0.54;82.21
62789;BME280;66401;42.016;21.454;2024-01-16T00:19:49;97063.50;;;0.55;82.62
62789;BME280;66401;42.016;21.454;2024-01-16T00:22:15;97071.22;;;0.71;81.50
62789;BME280;66401;42.016;21.454;2024-01-16T00:24:41;97074.72;;;0.70;82.51
62789;BME280;66401;42.016;21.454;2024-01-16T00:27:06;97073.94;;;0.70;82.26
62789;BME280;66401;42.016;21.454;2024-01-16T00:29:32;97075.03;;;0.75;82.27
62789;BME280;66401;42.016;21.454;2024-01-16T00:31:57;97077.91;;;0.64;82.18
62789;BME280;66401;42.016;21.454;2024-01-16T00:34:23;97042.34;;;0.53;82.35
62789;BME280;66401;42.016;21.454;2024-01-16T00:36:48;97086.28;;;0.91;81.66
62789;BME280;66401;42.016;21.454;2024-01-16T00:39:14;97085.50;;;0.98;80.42
62789;BME280;66401;42.016;21.454;2024-01-16T00:41:39;97091.72;;;0.88;80.50
62789;BME280;66401;42.016;21.454;2024-01-16T00:44:05;97088.50;;;0.85;80.76
62789;BME280;66401;42.016;21.454;2024-01-16T00:46:30;97070.72;;;0.68;81.53
62789;BME280;66401;42.016;21.454;2024-01-16T00:48:56;97076.16;;;0.73;82.13
62789;BME280;66401;42.016;21.454;2024-01-16T00:51:21;97088.84;;;0.82;81.69
62789;BME280;66401;42.016;21.454;2024-01-16T00:53:47;97073.44;;;0.66;82.54
62789;BME280;66401;42.016;21.454;2024-01-16T00:56:12;97101.19;;;0.87;81.95
62789;BME280;66401;42.016;21.454;2024-01-16T00:58:38;97109.03;;;1.10;81.86
62789;BME280;66401;42.016;21.454;2024-01-16T01:01:04;97100.53;;;0.93;80.46
62789;BME280;66401;42.016;21.454;2024-01-16T01:03:29;97091.09;;;0.77;81.10
62789;BME280;66401;42.016;21.454;2024-01-16T01:05:55;97109.03;;;0.94;81.84
62789;BME280;66401;42.016;21.454;2024-01-16T01:08:21;97096.84;;;1.04;81.89
62789;BME280;66401;42.016;21.454;2024-01-16T01:10:46;97115.94;;;1.09;81.27
62789;BME280;66401;42.016;21.454;2024-01-16T01:13:12;97123.78;;;1.16;81.68
62789;BME280;66401;42.016;21.454;2024-01-16T01:15:38;97124.44;;;1.18;82.39
62789;BME280;66401;42.016;21.454;2024-01-16T01:18:04;97115.44;;;1.22;81.55
62789;BME280;66401;42.016;21.454;2024-01-16T01:20:29;97109.34;;;1.31;81.34
62789;BME280;66401;42.016;21.454;2024-01-16T01:22:55;97089.78;;;1.30;80.72
62789;BME280;66401;42.016;21.454;2024-01-16T01:25:20;97090.41;;;1.32;80.69
62789;BME280;66401;42.016;21.454;2024-01-16T01:27:47;97105.47;;;1.52;81.32
62789;BME280;66401;42.016;21.454;2024-01-16T01:30:12;97094.13;;;1.38;81.02
62789;BME280;66401;42.016;21.454;2024-01-16T01:32:38;97110.25;;;1.63;80.35
62789;BME280;66401;42.016;21.454;2024-01-16T01:35:05;97112.53;;;1.58;81.49
62789;BME280;66401;42.016;21.454;2024-01-16T01:37:31;97105.78;;;1.65;81.66
62789;BME280;66401;42.016;21.454;2024-01-16T01:39:56;97103.16;;;1.73;80.08
62789;BME280;66401;42.016;21.454;2024-01-16T01:42:22;97107.66;;;1.79;80.65
62789;BME280;66401;42.016;21.454;2024-01-16T01:44:48;97106.34;;;1.83;80.43
62789;BME280;66401;42.016;21.454;2024-01-16T01:47:14;97111.53;;;1.75;82.06
62789;BME280;66401;42.016;21.454;2024-01-16T01:49:40;97125.28;;;1.90;80.87
62789;BME280;66401;42.016;21.454;2024-01-16T01:52:06;97108.50;;;1.63;82.59
62789;BME280;66401;42.016;21.454;2024-01-16T01:54:34;97115.03;;;1.82;80.39
62789;BME280;66401;42.016;21.454;2024-01-16T01:57:00;97127.22;;;1.88;80.06
62789;BME280;66401;42.016;21.454;2024-01-16T01:59:27;97125.00;;;1.77;80.70
62789;BME280;66401;42.016;21.454;2024-01-16T02:01:53;97103.97;;;1.73;81.01
62789;BME280;66401;42.016;21.454;2024-01-16T02:04:20;97117.31;;;1.53;81.30
62789;BME280;66401;42.016;21.454;2024-01-16T02:06:48;97119.72;;;1.54;82.54
62789;BME280;66401;42.016;21.454;2024-01-16T02:09:14;97123.31;;;1.45;83.12
62789;BME280;66401;42.016;21.454;2024-01-16T02:11:42;97128.56;;;1.60;83.93
62789;BME280;66401;42.016;21.454;2024-01-16T02:14:09;97136.25;;;1.68;82.60
62789;BME280;66401;42.016;21.454;2024-01-16T02:16:40;97130.47;;;1.66;83.02
62789;BME280;66401;42.016;21.454;2024-01-16T02:19:06;97134.38;;;1.46;87.51
62789;BME280;66401;42.016;21.454;2024-01-16T02:21:46;97141.38;;;1.60;85.98
62789;BME280;66401;42.016;21.454;2024-01-16T02:24:13;97151.66;;;1.52;85.87
62789;BME280;66401;42.016;21.454;2024-01-16T02:26:39;97138.84;;;1.11;87.19
62789;BME280;66401;42.016;21.454;2024-01-16T02:29:05;97139.66;;;1.11;87.52
62789;BME280;66401;42.016;21.454;2024-01-16T02:31:31;97137.06;;;0.87;88.85
62789;BME280;66401;42.016;21.454;2024-01-16T02:33:57;97153.41;;;0.78;87.78
62789;BME280;66401;42.016;21.454;2024-01-16T02:36:24;97119.19;;;0.45;88.09
62789;BME280;66401;42.016;21.454;2024-01-16T02:38:49;97157.31;;;0.56;88.78
62789;BME280;66401;42.016;21.454;2024-01-16T02:41:16;97137.03;;;0.71;87.00
62789;BME280;66401;42.016;21.454;2024-01-16T02:43:42;97125.03;;;0.71;88.27
62789;BME280;66401;42.016;21.454;2024-01-16T02:46:08;97123.72;;;0.59;88.64
62789;BME280;66401;42.016;21.454;2024-01-16T02:48:37;97153.50;;;0.60;87.37
62789;BME280;66401;42.016;21.454;2024-01-16T02:51:03;97158.31;;;0.63;89.07
62789;BME280;66401;42.016;21.454;2024-01-16T02:53:31;97142.75;;;0.56;89.04
62789;BME280;66401;42.016;21.454;2024-01-16T02:55:57;97139.56;;;0.63;89.43
62789;BME280;66401;42.016;21.454;2024-01-16T02:58:26;97124.69;;;0.66;88.41
62789;BME280;66401;42.016;21.454;2024-01-16T03:00:52;97151.59;;;0.62;89.00
62789;BME280;66401;42.016;21.454;2024-01-16T03:03:18;97143.94;;;0.78;89.06
62789;BME280;66401;42.016;21.454;2024-01-16T03:05:44;97121.84;;;0.94;87.34
62789;BME280;66401;42.016;21.454;2024-01-16T03:08:10;97113.50;;;0.75;88.59
62789;BME280;66401;42.016;21.454;2024-01-16T03:10:36;97133.69;;;0.78;88.07
62789;BME280;66401;42.016;21.454;2024-01-16T03:13:01;97128.41;;;0.88;87.96
62789;BME280;66401;42.016;21.454;2024-01-16T03:15:28;97137.22;;;0.77;88.25
62789;BME280;66401;42.016;21.454;2024-01-16T03:17:56;97149.22;;;0.69;90.36
62789;BME280;66401;42.016;21.454;2024-01-16T03:20:21;97160.22;;;0.53;91.29
62789;BME280;66401;42.016;21.454;2024-01-16T03:22:48;97170.94;;;0.48;90.85
62789;BME280;66401;42.016;21.454;2024-01-16T03:25:14;97172.66;;;0.48;92.26
62789;BME280;66401;42.016;21.454;2024-01-16T03:27:40;97164.63;;;0.35;91.86
62789;BME280;66401;42.016;21.454;2024-01-16T03:30:06;97188.28;;;0.28;93.33
62789;BME280;66401;42.016;21.454;2024-01-16T03:32:33;97192.88;;;0.17;93.14
62789;BME280;66401;42.016;21.454;2024-01-16T03:34:59;97191.03;;;0.01;93.48
62789;BME280;66401;42.016;21.454;2024-01-16T03:37:24;97204.59;;;-0.07;94.28
62789;BME280;66401;42.016;21.454;2024-01-16T03:39:50;97210.81;;;-0.09;94.29
62789;BME280;66401;42.016;21.454;2024-01-16T03:42:15;97227.41;;;-0.13;93.77
62789;BME280;66401;42.016;21.454;2024-01-16T03:44:41;97235.69;;;-0.19;94.09
62789;BME280;66401;42.016;21.454;2024-01-16T03:47:08;97239.00;;;-0.01;94.29
62789;BME280;66401;42.016;21.454;2024-01-16T03:49:34;97222.66;;;-0.08;94.08
62789;BME280;66401;42.016;21.454;2024-01-16T03:52:00;97214.47;;;-0.38;93.27
62789;BME280;66401;42.016;21.454;2024-01-16T03:54:25;97227.53;;;-0.41;94.46
62789;BME280;66401;42.016;21.454;2024-01-16T03:56:53;97241.19;;;-0.32;94.79
62789;BME280;66401;42.016;21.454;2024-01-16T03:59:19;97243.63;;;-0.48;96.60
62789;BME280;66401;42.016;21.454;2024-01-16T04:01:44;97257.38;;;-0.85;97.96
62789;BME280;66401;42.016;21.454;2024-01-16T04:04:11;97258.31;;;-0.86;97.84
62789;BME280;66401;42.016;21.454;2024-01-16T04:06:36;97248.66;;;-0.92;97.99
62789;BME280;66401;42.016;21.454;2024-01-16T04:09:03;97277.06;;;-0.77;97.22
62789;BME280;66401;42.016;21.454;2024-01-16T04:11:29;97261.09;;;-0.79;96.13
62789;BME280;66401;42.016;21.454;2024-01-16T04:13:54;97257.31;;;-0.75;94.90
62789;BME280;66401;42.016;21.454;2024-01-16T04:16:20;97273.72;;;-0.60;95.19
62789;BME280;66401;42.016;21.454;2024-01-16T04:18:45;97287.94;;;-0.48;95.66
62789;BME280;66401;42.016;21.454;2024-01-16T04:21:11;97285.16;;;-0.37;95.41
62789;BME280;66401;42.016;21.454;2024-01-16T04:23:37;97280.59;;;-0.25;95.18
62789;BME280;66401;42.016;21.454;2024-01-16T04:26:02;97274.94;;;-0.11;93.91
62789;BME280;66401;42.016;21.454;2024-01-16T04:28:28;97294.06;;;0.21;91.38
62789;BME280;66401;42.016;21.454;2024-01-16T04:30:53;97305.97;;;0.38;91.04
62789;BME280;66401;42.016;21.454;2024-01-16T04:33:19;97315.44;;;0.38;90.09
62789;BME280;66401;42.016;21.454;2024-01-16T04:35:45;97323.28;;;0.36;90.38
62789;BME280;66401;42.016;21.454;2024-01-16T04:38:10;97327.31;;;0.39;90.92
62789;BME280;66401;42.016;21.454;2024-01-16T04:40:36;97332.53;;;0.29;91.27
62789;BME280;66401;42.016;21.454;2024-01-16T04:43:01;97323.78;;;0.40;89.77
62789;BME280;66401;42.016;21.454;2024-01-16T04:45:28;97347.78;;;0.65;89.80
62789;BME280;66401;42.016;21.454;2024-01-16T04:47:53;97346.72;;;0.75;89.10
62789;BME280;66401;42.016;21.454;2024-01-16T04:50:19;97360.53;;;0.82;88.42
62789;BME280;66401;42.016;21.454;2024-01-16T04:52:44;97377.84;;;0.80;90.49
62789;BME280;66401;42.016;21.454;2024-01-16T04:55:10;97371.84;;;0.72;91.30
62789;BME280;66401;42.016;21.454;2024-01-16T04:57:35;97365.47;;;0.50;92.66
62789;BME280;66401;42.016;21.454;2024-01-16T05:00:01;97383.22;;;0.69;91.79
62789;BME280;66401;42.016;21.454;2024-01-16T05:02:26;97390.28;;;0.75;91.85
62789;BME280;66401;42.016;21.454;2024-01-16T05:04:52;97378.91;;;0.70;91.97
62789;BME280;66401;42.016;21.454;2024-01-16T05:07:18;97404.00;;;0.66;91.15
62789;BME280;66401;42.016;21.454;2024-01-16T05:09:46;97394.16;;;0.53;93.22
62789;BME280;66401;42.016;21.454;2024-01-16T05:12:11;97400.75;;;0.56;93.63
62789;BME280;66401;42.016;21.454;2024-01-16T05:14:37;97414.50;;;0.55;91.83
62789;BME280;66401;42.016;21.454;2024-01-16T05:17:03;97420.16;;;0.59;92.69
62789;BME280;66401;42.016;21.454;2024-01-16T05:19:29;97432.16;;;0.58;92.25
62789;BME280;66401;42.016;21.454;2024-01-16T05:21:54;97433.41;;;0.54;90.77
62789;BME280;66401;42.016;21.454;2024-01-16T05:24:20;97450.66;;;0.70;91.57
62789;BME280;66401;42.016;21.454;2024-01-16T05:26:45;97440.56;;;0.68;91.40
62789;BME280;66401;42.016;21.454;2024-01-16T05:29:11;97456.66;;;0.78;89.97
62789;BME280;66401;42.016;21.454;2024-01-16T05:31:43;97454.88;;;0.79;90.47
62789;BME280;66401;42.016;21.454;2024-01-16T05:34:12;97463.63;;;0.94;90.10
62789;BME280;66401;42.016;21.454;2024-01-16T05:36:37;97466.19;;;0.94;90.61
62789;BME280;66401;42.016;21.454;2024-01-16T05:39:03;97482.81;;;1.08;91.71
62789;BME280;66401;42.016;21.454;2024-01-16T05:41:33;97491.19;;;1.18;89.90
62789;BME280;66401;42.016;21.454;2024-01-16T05:43:58;97495.16;;;1.12;90.92
62789;BME280;66401;42.016;21.454;2024-01-16T05:46:24;97481.41;;;0.96;90.28
62789;BME280;66401;42.016;21.454;2024-01-16T05:48:50;97479.06;;;1.02;90.39
62789;BME280;66401;42.016;21.454;2024-01-16T05:51:15;97501.47;;;1.18;90.35
62789;BME280;66401;42.016;21.454;2024-01-16T05:53:41;97507.88;;;1.22;90.46
62789;BME280;66401;42.016;21.454;2024-01-16T05:56:06;97511.94;;;1.33;90.77
62789;BME280;66401;42.016;21.454;2024-01-16T05:58:33;97517.72;;;1.35;89.51
62789;BME280;66401;42.016;21.454;2024-01-16T06:01:04;97530.81;;;1.50;89.55
62789;BME280;66401;42.016;21.454;2024-01-16T06:03:30;97541.72;;;1.52;89.26
62789;BME280;66401;42.016;21.454;2024-01-16T06:05:55;97524.06;;;1.49;90.38
62789;BME280;66401;42.016;21.454;2024-01-16T06:08:21;97545.91;;;1.53;89.32
62789;BME280;66401;42.016;21.454;2024-01-16T06:10:46;97558.72;;;1.53;90.57
62789;BME280;66401;42.016;21.454;2024-01-16T06:13:12;97575.94;;;1.60;90.01
62789;BME280;66401;42.016;21.454;2024-01-16T06:15:38;97585.00;;;1.47;89.32
62789;BME280;66401;42.016;21.454;2024-01-16T06:18:03;97583.78;;;1.33;88.93
62789;BME280;66401;42.016;21.454;2024-01-16T06:20:35;97596.66;;;1.41;89.32
62789;BME280;66401;42.016;21.454;2024-01-16T06:23:00;97589.84;;;1.50;88.62
62789;BME280;66401;42.016;21.454;2024-01-16T06:25:32;97606.94;;;1.67;89.54
62789;BME280;66401;42.016;21.454;2024-01-16T06:27:58;97592.66;;;1.64;89.28
62789;BME280;66401;42.016;21.454;2024-01-16T06:30:23;97612.47;;;1.80;88.61
62789;BME280;66401;42.016;21.454;2024-01-16T06:32:49;97603.47;;;1.76;89.08
62789;BME280;66401;42.016;21.454;2024-01-16T06:35:15;97621.13;;;1.79;88.65
62789;BME280;66401;42.016;21.454;2024-01-16T06:37:42;97640.44;;;1.91;88.31
62789;BME280;66401;42.016;21.454;2024-01-16T06:40:08;97617.22;;;1.67;88.32
62789;BME280;66401;42.016;21.454;2024-01-16T06:42:34;97659.38;;;1.90;87.16
62789;BME280;66401;42.016;21.454;2024-01-16T06:45:01;97656.16;;;1.88;87.87
62789;BME280;66401;42.016;21.454;2024-01-16T06:47:26;97657.81;;;1.97;87.60
62789;BME280;66401;42.016;21.454;2024-01-16T06:49:52;97669.16;;;2.13;86.64
62789;BME280;66401;42.016;21.454;2024-01-16T06:52:19;97681.16;;;2.04;87.70
62789;BME280;66401;42.016;21.454;2024-01-16T06:54:44;97672.47;;;1.79;87.89
62789;BME280;66401;42.016;21.454;2024-01-16T06:57:11;97698.75;;;1.73;88.25
62789;BME280;66401;42.016;21.454;2024-01-16T06:59:36;97709.31;;;1.70;89.20
62789;BME280;66401;42.016;21.454;2024-01-16T07:02:02;97678.38;;;1.54;88.25
62789;BME280;66401;42.016;21.454;2024-01-16T07:04:28;97705.06;;;1.79;88.96
62789;BME280;66401;42.016;21.454;2024-01-16T07:06:54;97694.81;;;1.61;88.54
62789;BME280;66401;42.016;21.454;2024-01-16T07:09:19;97722.38;;;1.77;89.48
62789;BME280;66401;42.016;21.454;2024-01-16T07:11:47;97718.28;;;1.66;88.36
62789;BME280;66401;42.016;21.454;2024-01-16T07:14:13;97745.47;;;1.77;88.23
62789;BME280;66401;42.016;21.454;2024-01-16T07:16:39;97753.38;;;1.83;89.15
62789;BME280;66401;42.016;21.454;2024-01-16T07:19:04;97758.31;;;1.94;88.58
62789;BME280;66401;42.016;21.454;2024-01-16T07:21:30;97770.25;;;2.04;89.34
62789;BME280;66401;42.016;21.454;2024-01-16T07:23:56;97779.47;;;2.14;89.75
62789;BME280;66401;42.016;21.454;2024-01-16T07:26:22;97770.41;;;2.28;88.52
62789;BME280;66401;42.016;21.454;2024-01-16T07:28:49;97785.91;;;2.44;88.14
62789;BME280;66401;42.016;21.454;2024-01-16T07:31:15;97786.94;;;2.59;87.84
62789;BME280;66401;42.016;21.454;2024-01-16T07:33:42;97783.97;;;2.72;86.10
62789;BME280;66401;42.016;21.454;2024-01-16T07:36:09;97791.91;;;2.87;86.21
62789;BME280;66401;42.016;21.454;2024-01-16T07:38:35;97794.50;;;2.95;86.65
62789;BME280;66401;42.016;21.454;2024-01-16T07:41:04;97802.47;;;3.18;86.98
62789;BME280;66401;42.016;21.454;2024-01-16T07:43:29;97807.47;;;3.20;86.95
62789;BME280;66401;42.016;21.454;2024-01-16T07:45:55;97815.53;;;3.25;84.68
62789;BME280;66401;42.016;21.454;2024-01-16T07:48:21;97839.66;;;3.24;86.18
62789;BME280;66401;42.016;21.454;2024-01-16T07:50:48;97839.28;;;3.10;86.48
62789;BME280;66401;42.016;21.454;2024-01-16T07:53:14;97849.88;;;3.07;86.59
62789;BME280;66401;42.016;21.454;2024-01-16T07:55:43;97831.22;;;3.05;86.37
62789;BME280;66401;42.016;21.454;2024-01-16T07:58:12;97831.81;;;2.91;88.43
62789;BME280;66401;42.016;21.454;2024-01-16T08:00:38;97861.34;;;3.21;87.06
62789;BME280;66401;42.016;21.454;2024-01-16T08:03:07;97864.78;;;3.30;87.80
62789;BME280;66401;42.016;21.454;2024-01-16T08:05:32;97870.59;;;3.40;88.39
62789;BME280;66401;42.016;21.454;2024-01-16T08:07:58;97876.09;;;3.53;87.34
62789;BME280;66401;42.016;21.454;2024-01-16T08:10:23;97886.72;;;3.50;89.27
62789;BME280;66401;42.016;21.454;2024-01-16T08:12:49;97895.56;;;3.56;88.85
62789;BME280;66401;42.016;21.454;2024-01-16T08:15:15;97905.03;;;3.47;89.72
62789;BME280;66401;42.016;21.454;2024-01-16T08:17:40;97913.28;;;3.51;88.56
62789;BME280;66401;42.016;21.454;2024-01-16T08:20:06;97923.19;;;3.37;88.08
62789;BME280;66401;42.016;21.454;2024-01-16T08:22:35;97922.16;;;3.22;91.01
62789;BME280;66401;42.016;21.454;2024-01-16T08:25:01;97935.19;;;3.21;91.21
62789;BME280;66401;42.016;21.454;2024-01-16T08:27:26;97942.28;;;3.27;92.23
62789;BME280;66401;42.016;21.454;2024-01-16T08:29:53;97937.91;;;3.19;93.38
62789;BME280;66401;42.016;21.454;2024-01-16T08:32:19;97949.56;;;3.31;93.15
62789;BME280;66401;42.016;21.454;2024-01-16T08:34:44;97951.06;;;3.42;92.97
62789;BME280;66401;42.016;21.454;2024-01-16T08:37:10;97956.19;;;3.42;93.01
62789;BME280;66401;42.016;21.454;2024-01-16T08:39:35;97962.97;;;3.43;92.05
62789;BME280;66401;42.016;21.454;2024-01-16T08:42:01;97971.97;;;3.39;93.38
62789;BME280;66401;42.016;21.454;2024-01-16T08:44:29;97970.41;;;3.54;92.02
62789;BME280;66401;42.016;21.454;2024-01-16T08:46:55;97973.47;;;3.50;92.32
62789;BME280;66401;42.016;21.454;2024-01-16T08:49:20;97985.41;;;3.59;91.15
62789;BME280;66401;42.016;21.454;2024-01-16T08:51:46;98005.22;;;3.66;91.40
62789;BME280;66401;42.016;21.454;2024-01-16T08:54:12;97995.28;;;3.71;89.84
62789;BME280;66401;42.016;21.454;2024-01-16T08:56:37;98006.25;;;3.82;91.07
62789;BME280;66401;42.016;21.454;2024-01-16T08:59:03;98020.44;;;3.86;90.48
62789;BME280;66401;42.016;21.454;2024-01-16T09:01:28;98021.06;;;3.80;89.67
62789;BME280;66401;42.016;21.454;2024-01-16T09:03:54;98015.00;;;3.89;89.53
62789;BME280;66401;42.016;21.454;2024-01-16T09:06:19;98021.41;;;3.85;90.71
62789;BME280;66401;42.016;21.454;2024-01-16T09:08:45;98018.66;;;3.78;89.65
62789;BME280;66401;42.016;21.454;2024-01-16T09:11:11;98028.84;;;3.88;88.59
62789;BME280;66401;42.016;21.454;2024-01-16T09:13:37;98027.88;;;3.89;89.57
62789;BME280;66401;42.016;21.454;2024-01-16T09:16:03;98035.34;;;4.08;87.07
62789;BME280;66401;42.016;21.454;2024-01-16T09:18:28;98030.66;;;4.03;87.42
62789;BME280;66401;42.016;21.454;2024-01-16T09:20:54;98027.66;;;4.16;85.95
62789;BME280;66401;42.016;21.454;2024-01-16T09:23:20;98016.19;;;4.11;86.18
62789;BME280;66401;42.016;21.454;2024-01-16T09:25:46;98026.66;;;4.09;86.70
62789;BME280;66401;42.016;21.454;2024-01-16T09:28:11;98020.59;;;4.26;84.93
62789;BME280;66401;42.016;21.454;2024-01-16T09:30:37;98032.53;;;4.36;83.01
62789;BME280;66401;42.016;21.454;2024-01-16T09:33:03;98022.53;;;4.32;83.83
62789;BME280;66401;42.016;21.454;2024-01-16T09:35:32;98022.22;;;4.52;83.10
62789;BME280;66401;42.016;21.454;2024-01-16T09:37:57;98033.81;;;4.40;83.04
62789;BME280;66401;42.016;21.454;2024-01-16T09:40:25;98027.75;;;4.65;81.24
62789;BME280;66401;42.016;21.454;2024-01-16T09:42:51;98025.47;;;4.70;81.59
62789;BME280;66401;42.016;21.454;2024-01-16T09:45:20;98036.59;;;4.54;79.43
62789;BME280;66401;42.016;21.454;2024-01-16T09:47:47;98035.28;;;4.50;78.25
62789;BME280;66401;42.016;21.454;2024-01-16T09:50:15;98036.75;;;4.61;77.91
62789;BME280;66401;42.016;21.454;2024-01-16T09:52:45;98032.75;;;4.75;76.18
62789;BME280;66401;42.016;21.454;2024-01-16T09:55:10;98029.69;;;4.87;71.49
62789;BME280;66401;42.016;21.454;2024-01-16T09:57:39;98033.88;;;5.05;70.77
62789;BME280;66401;42.016;21.454;2024-01-16T10:00:09;98035.97;;;5.34;69.16
62789;BME280;66401;42.016;21.454;2024-01-16T10:02:41;98042.56;;;5.36;68.44
62789;BME280;66401;42.016;21.454;2024-01-16T10:05:11;98042.53;;;5.53;67.82
62789;BME280;66401;42.016;21.454;2024-01-16T10:07:41;98046.69;;;5.70;67.35
62789;BME280;66401;42.016;21.454;2024-01-16T10:10:09;98048.94;;;5.73;68.13
62789;BME280;66401;42.016;21.454;2024-01-16T10:12:39;98040.22;;;5.74;67.40
62789;BME280;66401;42.016;21.454;2024-01-16T10:15:08;98046.00;;;5.84;66.86
62789;BME280;66401;42.016;21.454;2024-01-16T10:17:43;98047.94;;;5.82;65.30
62789;BME280;66401;42.016;21.454;2024-01-16T10:20:10;98038.25;;;5.92;65.49
62789;BME280;66401;42.016;21.454;2024-01-16T10:22:41;98032.41;;;5.98;65.76
62789;BME280;66401;42.016;21.454;2024-01-16T10:25:16;98037.47;;;6.46;65.85
62789;BME280;66401;42.016;21.454;2024-01-16T10:27:45;98046.47;;;6.81;62.19
62789;BME280;66401;42.016;21.454;2024-01-16T10:30:11;98036.34;;;6.94;58.02
62789;BME280;66401;42.016;21.454;2024-01-16T10:32:41;98041.47;;;7.02;57.38
62789;BME280;66401;42.016;21.454;2024-01-16T10:35:08;98034.31;;;7.71;55.56
62789;BME280;66401;42.016;21.454;2024-01-16T10:40:09;98032.66;;;8.87;57.06
62789;BME280;66401;42.016;21.454;2024-01-16T10:42:34;98042.16;;;9.51;54.85
62789;BME280;66401;42.016;21.454;2024-01-16T10:45:00;98044.13;;;9.77;55.00
62789;BME280;66401;42.016;21.454;2024-01-16T10:47:25;98033.28;;;9.73;53.94
62789;BME280;66401;42.016;21.454;2024-01-16T10:49:51;98034.97;;;9.87;53.81
62789;BME280;66401;42.016;21.454;2024-01-16T10:52:17;98042.81;;;9.59;52.38
62789;BME280;66401;42.016;21.454;2024-01-16T10:54:43;98041.88;;;9.67;54.38
62789;BME280;66401;42.016;21.454;2024-01-16T10:57:15;98041.09;;;9.73;51.89
62789;BME280;66401;42.016;21.454;2024-01-16T10:59:53;98027.75;;;9.20;52.66
62789;BME280;66401;42.016;21.454;2024-01-16T11:02:24;98034.31;;;8.95;50.51
62789;BME280;66401;42.016;21.454;2024-01-16T11:04:55;98030.38;;;8.56;50.18
62789;BME280;66401;42.016;21.454;2024-01-16T11:07:23;98022.38;;;8.36;52.08
62789;BME280;66401;42.016;21.454;2024-01-16T11:09:51;98036.59;;;8.40;50.76
62789;BME280;66401;42.016;21.454;2024-01-16T11:12:18;98037.44;;;8.11;51.78
62789;BME280;66401;42.016;21.454;2024-01-16T11:14:49;98044.16;;;8.06;53.86
62789;BME280;66401;42.016;21.454;2024-01-16T11:17:21;98042.09;;;7.57;53.00
62789;BME280;66401;42.016;21.454;2024-01-16T11:19:48;98055.69;;;7.44;52.48
62789;BME280;66401;42.016;21.454;2024-01-16T11:22:14;98047.25;;;7.42;54.65
62789;BME280;66401;42.016;21.454;2024-01-16T11:24:41;98047.72;;;7.60;54.33
62789;BME280;66401;42.016;21.454;2024-01-16T11:27:07;98051.03;;;7.54;53.73
62789;BME280;66401;42.016;21.454;2024-01-16T11:29:34;98057.44;;;7.29;52.91
62789;BME280;66401;42.016;21.454;2024-01-16T11:32:00;98056.09;;;6.95;52.79
62789;BME280;66401;42.016;21.454;2024-01-16T11:37:11;98044.34;;;7.07;52.57
62789;BME280;66401;42.016;21.454;2024-01-16T11:39:37;98024.53;;;6.77;52.82
62789;BME280;66401;42.016;21.454;2024-01-16T11:42:03;98044.19;;;7.24;54.29
62789;BME280;66401;42.016;21.454;2024-01-16T11:44:49;98039.66;;;7.40;53.38
62789;BME280;66401;42.016;21.454;2024-01-16T11:47:20;98045.50;;;7.57;51.46
62789;BME280;66401;42.016;21.454;2024-01-16T11:49:47;98045.41;;;7.65;50.58
62789;BME280;66401;42.016;21.454;2024-01-16T11:52:13;98049.53;;;7.74;50.85
62789;BME280;66401;42.016;21.454;2024-01-16T11:54:40;98041.50;;;7.84;51.25
62789;BME280;66401;42.016;21.454;2024-01-16T11:57:52;98029.81;;;8.10;51.48
62789;BME280;66401;42.016;21.454;2024-01-16T12:00:02;98041.91;;;7.88;51.07
62789;BME280;66401;42.016;21.454;2024-01-16T12:02:53;98045.38;;;8.10;50.37
62789;BME280;66401;42.016;21.454;2024-01-16T12:05:21;98041.31;;;7.86;49.19
62789;BME280;66401;42.016;21.454;2024-01-16T12:07:51;98035.13;;;7.87;50.10
62789;BME280;66401;42.016;21.454;2024-01-16T12:10:26;98046.94;;;7.74;49.63
62789;BME280;66401;42.016;21.454;2024-01-16T12:12:59;98009.03;;;7.73;50.84
62789;BME280;66401;42.016;21.454;2024-01-16T12:15:26;98033.06;;;7.97;49.96
62789;BME280;66401;42.016;21.454;2024-01-16T12:17:58;98042.97;;;8.08;50.64
62789;BME280;66401;42.016;21.454;2024-01-16T12:20:29;98034.06;;;7.96;49.97
62789;BME280;66401;42.016;21.454;2024-01-16T12:22:58;98043.00;;;7.79;50.88
62789;BME280;66401;42.016;21.454;2024-01-16T12:25:25;98028.69;;;8.12;49.04
62789;BME280;66401;42.016;21.454;2024-01-16T12:28:05;98037.41;;;8.26;49.74
62789;BME280;66401;42.016;21.454;2024-01-16T12:30:35;98041.53;;;8.20;49.90
62789;BME280;66401;42.016;21.454;2024-01-16T12:33:05;98048.09;;;7.72;49.56
62789;BME280;66401;42.016;21.454;2024-01-16T12:35:39;98042.47;;;7.68;50.62
62789;BME280;66401;42.016;21.454;2024-01-16T12:38:07;98039.06;;;7.68;51.85
62789;BME280;66401;42.016;21.454;2024-01-16T12:40:37;98051.38;;;7.51;51.60
62789;BME280;66401;42.016;21.454;2024-01-16T12:43:05;98043.13;;;7.33;52.27
62789;BME280;66401;42.016;21.454;2024-01-16T12:45:31;98052.53;;;7.34;52.10
62789;BME280;66401;42.016;21.454;2024-01-16T12:47:59;98046.44;;;7.41;52.46
62789;BME280;66401;42.016;21.454;2024-01-16T12:50:26;98051.38;;;7.51;52.07
62789;BME280;66401;42.016;21.454;2024-01-16T12:55:30;98027.47;;;7.11;52.56
62789;BME280;66401;42.016;21.454;2024-01-16T12:58:35;98059.34;;;7.50;52.73
62789;BME280;66401;42.016;21.454;2024-01-16T13:01:25;98057.22;;;7.53;51.74
62789;BME280;66401;42.016;21.454;2024-01-16T13:03:51;98052.72;;;7.62;54.14
62789;BME280;66401;42.016;21.454;2024-01-16T13:06:21;98063.31;;;7.75;57.30